Time;durP1;ratioP1;P1;durP2;ratioP2;P2;SDS_P1;SDS_P2;PMS_P1;PMS_P2;Temp;Humidity;BMP_temperature;BMP_pressure;BME280_temperature;BME280_humidity;BME280_pressure;Samples;Min_cycle;Max_cycle;Signal;HPM_P1;HPM_P2
2021/08/18 00:00:47;;;;;;;5.30;3.97;;;15.10;99.90;;;;;;5075035;28;20925;-62
2021/08/18 00:03:14;;;;;;;6.70;5.00;;;15.20;99.90;;;;;;5073471;28;20913;-61
2021/08/18 00:05:41;;;;;;;6.30;4.40;;;15.20;99.90;;;;;;5061495;28;20427;-65
2021/08/18 00:08:09;;;;;;;6.23;4.43;;;15.20;99.90;;;;;;5054325;28;20467;-62
2021/08/18 00:10:35;;;;;;;6.57;5.17;;;15.20;99.90;;;;;;5054683;28;20408;-61
2021/08/18 00:13:02;;;;;;;5.43;4.90;;;15.20;99.90;;;;;;5054501;28;20415;-62
2021/08/18 00:15:28;;;;;;;8.47;5.43;;;15.20;99.90;;;;;;5054693;28;20728;-63
2021/08/18 00:18:00;;;;;;;6.50;5.37;;;15.20;99.90;;;;;;5068667;28;20450;-61
2021/08/18 00:20:27;;;;;;;6.27;4.63;;;15.20;99.90;;;;;;5074485;28;20198;-65
2021/08/18 00:22:53;;;;;;;4.83;4.37;;;15.20;99.90;;;;;;5074580;28;20414;-61
2021/08/18 00:25:19;;;;;;;8.17;4.90;;;15.20;99.90;;;;;;5074438;28;20539;-62
2021/08/18 00:27:45;;;;;;;6.60;4.17;;;15.20;99.90;;;;;;5073916;28;20501;-61
2021/08/18 00:30:11;;;;;;;9.83;5.97;;;15.20;99.90;;;;;;5074397;28;20262;-65
2021/08/18 00:32:36;;;;;;;8.37;5.60;;;15.20;99.90;;;;;;5059144;28;20651;-63
2021/08/18 00:35:02;;;;;;;8.50;5.80;;;15.10;99.90;;;;;;5054156;28;20453;-62
2021/08/18 00:37:28;;;;;;;9.17;5.70;;;15.10;99.90;;;;;;5053829;28;20323;-62
2021/08/18 00:39:53;;;;;;;5.27;3.77;;;15.10;99.90;;;;;;5053958;28;20426;-62
2021/08/18 00:42:19;;;;;;;9.83;5.27;;;15.20;99.90;;;;;;5054169;28;20682;-64
2021/08/18 00:44:46;;;;;;;8.90;5.20;;;15.20;99.90;;;;;;5053714;28;20683;-62
2021/08/18 00:47:12;;;;;;;7.73;4.80;;;15.20;99.90;;;;;;5073528;28;20476;-65
2021/08/18 00:49:38;;;;;;;5.93;4.10;;;15.10;99.90;;;;;;5073714;28;20187;-62
2021/08/18 00:52:04;;;;;;;5.53;4.10;;;15.20;99.90;;;;;;5074476;28;20225;-63
2021/08/18 00:54:30;;;;;;;7.10;5.37;;;15.20;99.90;;;;;;5073840;28;20187;-61
2021/08/18 00:56:57;;;;;;;5.90;3.80;;;15.20;99.90;;;;;;5073504;28;20407;-64
2021/08/18 00:59:25;;;;;;;6.83;4.83;;;15.20;99.90;;;;;;5073492;28;20215;-64
2021/08/18 01:01:50;;;;;;;9.27;5.20;;;15.20;99.90;;;;;;5073141;28;20830;-62
2021/08/18 01:04:16;;;;;;;5.17;4.67;;;15.20;99.90;;;;;;5073511;28;20457;-64
2021/08/18 01:06:43;;;;;;;6.43;4.23;;;15.20;99.90;;;;;;5073401;28;20222;-62
2021/08/18 01:09:12;;;;;;;5.37;4.67;;;15.30;99.90;;;;;;5073545;28;20749;-63
2021/08/18 01:11:47;;;;;;;8.47;5.90;;;15.30;99.90;;;;;;5073570;28;20419;-64
2021/08/18 01:14:13;;;;;;;6.53;4.37;;;15.20;99.90;;;;;;5073311;28;20567;-64
2021/08/18 01:16:40;;;;;;;7.00;6.20;;;15.20;99.90;;;;;;5072913;28;20424;-62
2021/08/18 01:19:08;;;;;;;7.10;4.70;;;15.20;99.90;;;;;;5073287;28;20449;-63
2021/08/18 01:21:35;;;;;;;9.77;5.80;;;15.30;99.90;;;;;;5073486;28;20391;-62
2021/08/18 01:24:02;;;;;;;8.40;5.67;;;15.20;99.90;;;;;;5073546;28;20403;-62
2021/08/18 01:26:29;;;;;;;7.50;4.87;;;15.20;99.90;;;;;;5073410;28;20441;-62
2021/08/18 01:28:56;;;;;;;6.50;4.33;;;15.20;99.90;;;;;;5073082;28;20972;-62
2021/08/18 01:31:22;;;;;;;6.77;4.83;;;15.20;99.90;;;;;;5053457;28;20464;-62
2021/08/18 01:33:48;;;;;;;5.80;4.07;;;15.30;99.90;;;;;;5053356;28;20411;-62
2021/08/18 01:36:14;;;;;;;6.93;4.63;;;15.30;99.90;;;;;;5053477;28;20960;-61
2021/08/18 01:38:39;;;;;;;8.27;4.80;;;15.20;99.90;;;;;;5052751;28;20531;-63
2021/08/18 01:41:05;;;;;;;7.17;4.73;;;15.30;99.90;;;;;;5053161;28;20635;-61
2021/08/18 01:43:31;;;;;;;6.40;4.23;;;15.30;99.90;;;;;;5058313;28;20542;-65
2021/08/18 01:45:56;;;;;;;6.20;4.60;;;15.30;99.90;;;;;;5072190;28;20540;-63
2021/08/18 01:48:25;;;;;;;9.37;5.03;;;15.30;99.90;;;;;;5072754;28;20192;-64
2021/08/18 01:50:54;;;;;;;7.40;4.63;;;15.30;99.90;;;;;;5073389;28;20172;-64
2021/08/18 01:53:25;;;;;;;6.10;4.00;;;15.30;99.90;;;;;;5073142;28;20411;-63
2021/08/18 01:55:51;;;;;;;10.23;5.90;;;15.30;99.90;;;;;;5072422;28;20422;-63
2021/08/18 01:58:17;;;;;;;7.40;4.53;;;15.30;99.90;;;;;;5070792;28;20520;-62
2021/08/18 02:00:43;;;;;;;8.10;4.87;;;15.40;99.90;;;;;;5057322;28;20406;-64
2021/08/18 02:03:08;;;;;;;7.80;4.47;;;15.40;99.90;;;;;;5073457;28;20430;-61
2021/08/18 02:05:34;;;;;;;8.17;4.53;;;15.40;99.90;;;;;;5077157;28;20243;-63
2021/08/18 02:08:00;;;;;;;6.20;4.27;;;15.40;99.90;;;;;;5059781;28;20264;-62
2021/08/18 02:10:27;;;;;;;6.93;5.30;;;15.40;99.90;;;;;;5056945;28;20188;-65
2021/08/18 02:12:54;;;;;;;4.83;3.60;;;15.40;99.90;;;;;;5057007;28;20299;-62
2021/08/18 02:15:30;;;;;;;8.77;5.53;;;15.40;99.90;;;;;;5056954;28;20941;-64
2021/08/18 02:17:56;;;;;;;6.93;4.60;;;15.40;99.90;;;;;;5056393;28;20454;-61
2021/08/18 02:20:26;;;;;;;9.73;5.20;;;15.40;99.90;;;;;;5056706;28;20415;-65
2021/08/18 02:22:53;;;;;;;5.30;4.50;;;15.50;99.90;;;;;;5056734;28;20925;-61
2021/08/18 02:25:19;;;;;;;9.87;5.30;;;15.50;99.90;;;;;;5056771;28;20469;-63
2021/08/18 02:27:45;;;;;;;6.67;3.97;;;15.50;99.90;;;;;;5056111;28;20928;-63
2021/08/18 02:30:15;;;;;;;5.30;3.73;;;15.50;99.90;;;;;;5056787;28;20771;-62
2021/08/18 02:32:40;;;;;;;6.90;5.20;;;15.50;99.90;;;;;;5056241;28;20435;-62
2021/08/18 02:35:07;;;;;;;7.97;5.20;;;15.50;99.90;;;;;;5059905;28;20419;-64
2021/08/18 02:37:33;;;;;;;7.53;4.57;;;15.50;99.90;;;;;;5076039;28;20208;-62
2021/08/18 02:39:58;;;;;;;7.27;4.27;;;15.50;99.90;;;;;;5076278;28;20864;-63
2021/08/18 02:42:24;;;;;;;5.97;4.50;;;15.50;99.90;;;;;;5076813;28;20758;-64
2021/08/18 02:44:50;;;;;;;5.93;5.20;;;15.50;99.90;;;;;;5076268;28;20177;-62
2021/08/18 02:47:16;;;;;;;6.73;3.60;;;15.50;99.90;;;;;;5065077;28;20196;-63
2021/08/18 02:49:41;;;;;;;5.53;4.27;;;15.60;99.90;;;;;;5056195;28;20200;-63
2021/08/18 02:52:08;;;;;;;5.00;4.17;;;15.50;99.90;;;;;;5056170;28;20416;-64
2021/08/18 02:54:34;;;;;;;3.73;3.23;;;15.50;99.90;;;;;;5056006;28;20304;-60
2021/08/18 02:57:00;;;;;;;4.63;3.37;;;15.50;99.90;;;;;;5055973;28;20416;-64
2021/08/18 02:59:25;;;;;;;7.20;4.17;;;15.50;99.90;;;;;;5055975;28;20477;-62
2021/08/18 03:01:51;;;;;;;4.63;4.10;;;15.60;99.90;;;;;;5055890;28;20266;-64
2021/08/18 03:04:16;;;;;;;6.17;4.50;;;15.60;99.90;;;;;;5056037;28;20168;-61
2021/08/18 03:06:42;;;;;;;8.40;4.80;;;15.60;99.90;;;;;;5055512;28;20173;-63
2021/08/18 03:09:08;;;;;;;6.77;4.00;;;15.60;99.90;;;;;;5054749;28;20221;-62
2021/08/18 03:11:33;;;;;;;5.60;4.07;;;15.60;99.90;;;;;;5055777;28;20404;-63
2021/08/18 03:13:59;;;;;;;6.73;4.00;;;15.50;99.90;;;;;;5055926;28;20184;-64
2021/08/18 03:16:25;;;;;;;8.03;4.77;;;15.50;99.90;;;;;;5070585;28;20183;-62
2021/08/18 03:18:50;;;;;;;8.80;4.13;;;15.50;99.90;;;;;;5075161;28;20212;-62
2021/08/18 03:21:16;;;;;;;5.47;4.47;;;15.50;99.90;;;;;;5075538;28;20207;-62
2021/08/18 03:23:42;;;;;;;7.00;3.80;;;15.50;99.90;;;;;;5075455;28;20233;-64
2021/08/18 03:26:08;;;;;;;5.43;3.00;;;15.50;99.90;;;;;;5075469;28;20173;-62
2021/08/18 03:28:33;;;;;;;5.77;3.43;;;15.50;99.90;;;;;;5075093;28;20193;-65
2021/08/18 03:30:59;;;;;;;4.80;3.60;;;15.50;99.90;;;;;;5075007;28;20581;-62
2021/08/18 03:33:24;;;;;;;5.07;3.30;;;15.50;99.90;;;;;;5075447;28;20174;-64
2021/08/18 03:35:50;;;;;;;5.40;3.27;;;15.50;99.90;;;;;;5075570;28;20176;-63
2021/08/18 03:38:16;;;;;;;4.47;3.53;;;15.50;99.90;;;;;;5074941;28;20269;-63
2021/08/18 03:40:41;;;;;;;4.27;3.73;;;15.50;99.90;;;;;;5075258;28;20168;-63
2021/08/18 03:43:07;;;;;;;6.33;3.90;;;15.50;99.90;;;;;;5075270;28;20192;-62
2021/08/18 03:45:33;;;;;;;3.70;3.00;;;15.60;99.90;;;;;;5063407;28;20203;-63
2021/08/18 03:47:58;;;;;;;4.53;3.10;;;15.60;99.90;;;;;;5054631;28;20176;-61
2021/08/18 03:50:24;;;;;;;4.50;3.60;;;15.60;99.90;;;;;;5056003;28;20185;-64
2021/08/18 03:52:50;;;;;;;4.70;3.23;;;15.60;99.90;;;;;;5055404;28;20191;-63
2021/08/18 03:55:16;;;;;;;4.20;3.37;;;15.50;99.90;;;;;;5055003;28;20204;-66
2021/08/18 03:57:41;;;;;;;4.10;2.87;;;15.50;99.90;;;;;;5054540;28;20271;-62
2021/08/18 04:00:08;;;;;;;3.77;3.37;;;15.50;99.90;;;;;;5055038;28;20435;-63
2021/08/18 04:02:35;;;;;;;3.33;2.73;;;15.50;99.90;;;;;;5062060;28;20203;-61
2021/08/18 04:05:02;;;;;;;5.67;3.93;;;15.50;99.90;;;;;;5075334;28;20414;-64
2021/08/18 04:07:27;;;;;;;5.97;3.50;;;15.50;99.90;;;;;;5074405;28;20414;-64
2021/08/18 04:09:53;;;;;;;4.57;3.50;;;15.50;99.90;;;;;;5074576;28;20430;-64
2021/08/18 04:12:19;;;;;;;7.03;3.60;;;15.60;99.90;;;;;;5055412;28;20177;-61
2021/08/18 04:14:44;;;;;;;3.43;3.13;;;15.60;99.90;;;;;;5054935;28;20216;-64
2021/08/18 04:17:10;;;;;;;3.70;2.80;;;15.60;99.90;;;;;;5054244;28;20270;-63
2021/08/18 04:19:36;;;;;;;3.57;2.77;;;15.60;99.90;;;;;;5054123;28;20205;-61
2021/08/18 04:22:04;;;;;;;3.70;3.00;;;15.60;99.90;;;;;;5061963;28;20223;-65
2021/08/18 04:24:29;;;;;;;3.93;2.70;;;15.60;99.90;;;;;;5073042;28;20414;-62
2021/08/18 04:26:55;;;;;;;3.27;2.80;;;15.60;99.90;;;;;;5073993;28;20407;-64
2021/08/18 04:29:21;;;;;;;4.27;3.37;;;15.70;99.90;;;;;;5074200;28;20283;-62
2021/08/18 04:31:46;;;;;;;4.93;3.30;;;15.60;99.90;;;;;;5074036;28;20194;-65
2021/08/18 04:34:12;;;;;;;5.23;3.77;;;15.60;99.90;;;;;;5074071;28;20195;-65
2021/08/18 04:36:37;;;;;;;6.20;4.10;;;15.60;99.90;;;;;;5073455;28;20187;-62
2021/08/18 04:39:03;;;;;;;4.10;3.00;;;15.70;99.90;;;;;;5074044;28;20213;-64
2021/08/18 04:41:29;;;;;;;3.83;3.20;;;15.70;99.90;;;;;;5074012;28;20181;-63
2021/08/18 04:43:54;;;;;;;6.17;3.30;;;15.70;99.90;;;;;;5074172;28;20203;-62
2021/08/18 04:46:20;;;;;;;5.23;3.20;;;15.70;99.90;;;;;;5074061;28;20177;-62
2021/08/18 04:48:46;;;;;;;5.80;3.17;;;15.60;99.90;;;;;;5073346;28;20220;-64
2021/08/18 04:51:11;;;;;;;2.97;2.03;;;15.60;99.90;;;;;;5061857;28;20195;-60
2021/08/18 04:53:37;;;;;;;3.20;2.90;;;15.60;99.90;;;;;;5052559;28;20177;-64
2021/08/18 04:56:03;;;;;;;3.20;2.57;;;15.70;99.90;;;;;;5053862;28;20226;-61
2021/08/18 04:58:29;;;;;;;3.47;3.10;;;15.70;99.90;;;;;;5053386;28;20220;-62
2021/08/18 05:00:55;;;;;;;3.73;2.20;;;15.70;99.90;;;;;;5053795;28;20770;-62
2021/08/18 05:03:20;;;;;;;3.80;2.60;;;15.70;99.90;;;;;;5053550;28;20643;-62
2021/08/18 05:05:46;;;;;;;5.47;2.77;;;15.70;99.90;;;;;;5053411;28;20631;-63
2021/08/18 05:08:11;;;;;;;3.70;2.67;;;15.70;99.90;;;;;;5052975;28;20204;-62
2021/08/18 05:10:37;;;;;;;3.60;3.13;;;15.70;99.90;;;;;;5053464;28;20260;-61
2021/08/18 05:13:03;;;;;;;3.13;2.70;;;15.70;99.90;;;;;;5053681;28;20262;-63
2021/08/18 05:15:30;;;;;;;3.87;2.67;;;15.70;99.90;;;;;;5053365;28;20414;-65
2021/08/18 05:17:56;;;;;;;3.47;2.93;;;15.80;99.90;;;;;;5052918;28;20455;-62
2021/08/18 05:20:22;;;;;;;3.13;2.30;;;15.80;99.90;;;;;;5062123;28;20772;-65
2021/08/18 05:22:48;;;;;;;5.10;2.63;;;15.80;99.90;;;;;;5073442;28;20238;-60
2021/08/18 05:25:16;;;;;;;4.37;3.27;;;15.80;99.90;;;;;;5072236;28;20429;-64
2021/08/18 05:27:42;;;;;;;3.03;2.37;;;15.70;99.90;;;;;;5073042;28;20498;-62
2021/08/18 05:30:10;;;;;;;2.40;2.30;;;15.70;99.90;;;;;;5073157;28;20419;-65
2021/08/18 05:32:37;;;;;;;4.20;2.50;;;15.70;99.90;;;;;;5071471;28;20961;-62
2021/08/18 05:35:05;;;;;;;5.03;2.50;;;15.70;99.90;;;;;;5072980;28;20509;-62
2021/08/18 05:37:30;;;;;;;3.17;2.53;;;15.70;99.90;;;;;;5072654;28;20418;-64
2021/08/18 05:39:56;;;;;;;2.23;2.03;;;15.70;99.90;;;;;;5073163;28;20431;-64
2021/08/18 05:42:22;;;;;;;4.63;4.23;;;15.70;99.90;;;;;;5073186;28;20223;-62
2021/08/18 05:44:47;;;;;;;4.00;3.10;;;15.70;99.90;;;;;;5073238;28;20169;-62
2021/08/18 05:47:13;;;;;;;5.00;3.63;;;15.60;99.90;;;;;;5072860;28;20279;-64
2021/08/18 05:49:38;;;;;;;3.40;2.40;;;15.60;99.90;;;;;;5060128;28;20589;-61
2021/08/18 05:52:04;;;;;;;4.70;3.57;;;15.50;99.90;;;;;;5053176;28;20517;-64
2021/08/18 05:54:30;;;;;;;6.17;3.40;;;15.50;99.90;;;;;;5053164;28;20605;-62
2021/08/18 05:56:56;;;;;;;5.70;2.90;;;15.40;99.90;;;;;;5052697;28;21007;-64
2021/08/18 05:59:21;;;;;;;6.37;2.57;;;15.40;99.90;;;;;;5052787;28;20218;-63
2021/08/18 06:01:47;;;;;;;3.60;2.50;;;15.40;99.90;;;;;;5052960;28;20631;-64
2021/08/18 06:04:13;;;;;;;5.17;3.47;;;15.40;99.90;;;;;;5052924;28;20222;-62
2021/08/18 06:06:38;;;;;;;12.03;3.23;;;15.30;99.90;;;;;;5052541;28;20169;-66
2021/08/18 06:09:04;;;;;;;3.97;2.67;;;15.40;99.90;;;;;;5052824;28;20964;-62
2021/08/18 06:11:30;;;;;;;7.13;3.00;;;15.40;99.90;;;;;;5051819;28;20184;-63
2021/08/18 06:13:55;;;;;;;4.00;3.50;;;15.40;99.90;;;;;;5051588;28;20208;-63
2021/08/18 06:16:21;;;;;;;6.37;3.53;;;15.40;99.90;;;;;;5052740;28;20525;-65
2021/08/18 06:18:47;;;;;;;3.13;2.83;;;15.50;99.90;;;;;;5051014;28;20471;-65
2021/08/18 06:21:13;;;;;;;4.70;3.37;;;15.50;99.90;;;;;;5051196;28;20184;-63
2021/08/18 06:23:39;;;;;;;5.17;4.00;;;15.60;99.90;;;;;;5052632;28;20418;-66
2021/08/18 06:26:04;;;;;;;5.30;3.20;;;15.70;99.90;;;;;;5052918;28;20632;-62
2021/08/18 06:28:30;;;;;;;4.80;2.80;;;15.80;99.90;;;;;;5052011;28;20475;-63
2021/08/18 06:30:57;;;;;;;3.50;2.27;;;16.00;99.90;;;;;;5052463;28;20185;-63
2021/08/18 06:33:22;;;;;;;3.47;2.80;;;16.20;99.90;;;;;;5052824;28;20268;-63
2021/08/18 06:35:48;;;;;;;4.27;3.20;;;16.30;99.90;;;;;;5052971;28;20489;-63
2021/08/18 06:38:14;;;;;;;3.13;2.37;;;16.40;99.90;;;;;;5050792;28;20209;-63
2021/08/18 06:40:39;;;;;;;6.00;2.40;;;16.50;99.90;;;;;;5059634;28;20176;-65
2021/08/18 06:43:05;;;;;;;4.40;2.63;;;16.60;99.90;;;;;;5072369;28;20239;-63
2021/08/18 06:45:31;;;;;;;4.10;2.57;;;16.60;99.90;;;;;;5076295;28;20169;-65
2021/08/18 06:47:57;;;;;;;5.57;2.93;;;16.60;99.90;;;;;;5074532;28;20180;-61
2021/08/18 06:50:23;;;;;;;3.23;2.43;;;16.70;99.90;;;;;;5076602;28;20260;-65
2021/08/18 06:52:49;;;;;;;2.27;2.03;;;16.70;99.90;;;;;;5063023;28;20428;-63
2021/08/18 06:55:14;;;;;;;2.27;1.53;;;16.70;99.90;;;;;;5056262;28;20412;-66
2021/08/18 06:57:41;;;;;;;2.03;1.60;;;16.80;99.90;;;;;;5055640;28;20259;-62
2021/08/18 07:00:08;;;;;;;3.63;2.20;;;16.80;99.90;;;;;;5055626;28;20538;-66
2021/08/18 07:02:45;;;;;;;2.60;1.80;;;16.90;99.90;;;;;;5056205;28;20775;-67
2021/08/18 07:05:11;;;;;;;2.67;1.80;;;16.90;99.90;;;;;;5055914;28;20511;-65
2021/08/18 07:07:36;;;;;;;2.13;1.93;;;16.90;99.90;;;;;;5068758;28;20512;-64
2021/08/18 07:10:03;;;;;;;4.90;3.43;;;17.00;99.90;;;;;;5075882;28;20425;-64
2021/08/18 07:12:29;;;;;;;4.13;3.10;;;17.00;99.90;;;;;;5075752;28;20174;-62
2021/08/18 07:14:55;;;;;;;2.60;2.17;;;17.00;99.90;;;;;;5075662;28;20403;-63
2021/08/18 07:17:21;;;;;;;2.57;2.33;;;17.00;99.90;;;;;;5075600;28;20411;-64
2021/08/18 07:19:46;;;;;;;2.90;2.57;;;17.00;99.90;;;;;;5069055;28;20221;-64
2021/08/18 07:22:12;;;;;;;2.47;2.27;;;17.10;99.90;;;;;;5055560;28;20512;-63
2021/08/18 07:24:37;;;;;;;3.97;2.97;;;17.10;99.90;;;;;;5055661;28;20259;-64
2021/08/18 07:27:03;;;;;;;4.10;2.70;;;17.30;99.90;;;;;;5055051;28;20179;-64
2021/08/18 07:29:29;;;;;;;2.80;2.60;;;17.30;99.90;;;;;;5055280;28;20200;-63
2021/08/18 07:31:55;;;;;;;4.43;2.57;;;17.40;99.90;;;;;;5055340;28;20916;-65
2021/08/18 07:34:21;;;;;;;2.20;2.00;;;17.50;99.90;;;;;;5055612;28;20441;-63
2021/08/18 07:36:47;;;;;;;2.53;2.33;;;17.60;99.90;;;;;;5055110;28;20261;-65
2021/08/18 07:39:12;;;;;;;3.47;2.30;;;17.80;99.90;;;;;;5055111;28;20206;-63
2021/08/18 07:41:38;;;;;;;2.53;2.10;;;17.80;99.90;;;;;;5055379;28;20632;-65
2021/08/18 07:44:04;;;;;;;2.30;1.93;;;17.90;99.90;;;;;;5055208;28;20231;-65
2021/08/18 07:46:30;;;;;;;4.17;3.23;;;18.10;99.90;;;;;;5055360;28;20207;-66
2021/08/18 07:48:55;;;;;;;2.67;2.47;;;18.40;99.90;;;;;;5065691;28;20446;-63
2021/08/18 07:51:21;;;;;;;2.87;2.10;;;18.70;99.90;;;;;;5075249;28;20203;-63
2021/08/18 07:53:46;;;;;;;2.10;1.90;;;18.90;99.90;;;;;;5074880;28;20181;-65
2021/08/18 07:56:12;;;;;;;2.20;1.90;;;19.10;99.90;;;;;;5075067;28;20226;-64
2021/08/18 07:58:38;;;;;;;1.90;1.70;;;19.30;99.90;;;;;;5074533;28;20205;-66
2021/08/18 08:01:04;;;;;;;1.90;1.70;;;19.60;99.90;;;;;;5075092;28;20180;-61
2021/08/18 08:03:30;;;;;;;2.03;1.70;;;19.90;99.90;;;;;;5065214;28;20640;-64
2021/08/18 08:05:56;;;;;;;1.87;1.77;;;20.10;99.90;;;;;;5063365;28;20443;-65
2021/08/18 08:08:22;;;;;;;2.03;1.60;;;20.50;99.90;;;;;;5074256;28;21040;-65
2021/08/18 08:10:48;;;;;;;2.80;1.97;;;20.80;99.90;;;;;;5074782;28;20248;-63
2021/08/18 08:13:14;;;;;;;1.63;1.43;;;21.10;99.90;;;;;;5074865;28;20195;-66
2021/08/18 08:15:39;;;;;;;1.73;1.53;;;21.30;99.90;;;;;;5074345;28;20939;-65
2021/08/18 08:18:05;;;;;;;3.20;1.33;;;21.70;99.90;;;;;;5065535;28;20205;-65
2021/08/18 08:20:31;;;;;;;2.00;1.13;;;22.00;99.90;;;;;;5054685;28;20209;-67
2021/08/18 08:22:58;;;;;;;1.70;1.00;;;22.20;99.90;;;;;;5070275;28;20234;-63
2021/08/18 08:25:24;;;;;;;1.23;1.13;;;22.30;99.90;;;;;;5074585;28;20181;-66
2021/08/18 08:27:50;;;;;;;1.53;1.20;;;22.20;99.90;;;;;;5074178;28;20411;-65
2021/08/18 08:30:15;;;;;;;1.33;1.17;;;22.00;99.90;;;;;;5074352;28;20384;-65
2021/08/18 08:32:41;;;;;;;1.03;0.93;;;21.80;99.90;;;;;;5066945;28;20183;-63
2021/08/18 08:35:08;;;;;;;0.70;0.70;;;21.50;99.90;;;;;;5054343;28;20378;-66
2021/08/18 08:37:34;;;;;;;1.87;0.90;;;21.30;99.90;;;;;;5053658;28;20167;-65
2021/08/18 08:40:00;;;;;;;1.47;1.37;;;21.10;99.90;;;;;;5054042;28;20449;-64
2021/08/18 08:42:27;;;;;;;1.43;1.20;;;21.00;99.90;;;;;;5054306;28;20490;-63
2021/08/18 08:44:53;;;;;;;1.63;1.53;;;21.00;99.90;;;;;;5054025;28;20208;-65
2021/08/18 08:47:21;;;;;;;1.37;1.10;;;20.90;99.90;;;;;;5059525;28;20419;-64
2021/08/18 08:49:48;;;;;;;1.90;1.33;;;20.80;99.90;;;;;;5073913;28;20419;-65
2021/08/18 08:52:14;;;;;;;1.63;1.33;;;20.60;99.90;;;;;;5073992;28;20818;-64
2021/08/18 08:54:43;;;;;;;2.37;0.60;;;20.40;99.90;;;;;;5073940;28;20486;-60
2021/08/18 08:57:09;;;;;;;1.97;1.37;;;20.30;99.90;;;;;;5073508;28;20377;-63
2021/08/18 08:59:35;;;;;;;1.17;0.70;;;20.20;99.90;;;;;;5072391;28;20951;-64
2021/08/18 09:02:08;;;;;;;0.70;0.70;;;20.10;99.90;;;;;;5067537;28;20528;-66
2021/08/18 09:04:41;;;;;;;0.80;0.60;;;20.20;99.90;;;;;;5053886;28;20162;-65
2021/08/18 09:07:14;;;;;;;0.73;0.60;;;20.20;99.90;;;;;;5052740;28;20933;-64
2021/08/18 09:10:01;;;;;;;0.70;0.63;;;20.40;99.90;;;;;;5053562;28;20509;-66
2021/08/18 09:12:29;;;;;;;0.73;0.40;;;20.50;99.90;;;;;;5064860;28;20518;-64
2021/08/18 09:14:55;;;;;;;0.63;0.63;;;20.50;99.90;;;;;;5073439;28;20448;-63
2021/08/18 09:17:35;;;;;;;1.13;1.03;;;20.40;99.90;;;;;;5073024;28;20401;-65
2021/08/18 09:20:09;;;;;;;0.40;0.40;;;20.30;99.90;;;;;;5067725;28;20452;-65
2021/08/18 09:22:38;;;;;;;0.40;0.37;;;20.20;99.90;;;;;;5053328;28;20401;-63
2021/08/18 09:25:10;;;;;;;0.40;0.37;;;20.10;99.90;;;;;;5053328;28;20404;-67
2021/08/18 09:27:36;;;;;;;9.17;5.70;;;20.10;99.90;;;;;;5052986;28;20478;-64
2021/08/18 09:30:03;;;;;;;1.63;0.30;;;19.90;99.90;;;;;;5053230;28;20428;-68
2021/08/18 09:32:38;;;;;;;0.40;0.40;;;19.70;99.90;;;;;;5053105;28;20188;-64
2021/08/18 09:35:12;;;;;;;0.50;0.50;;;19.50;99.90;;;;;;5060921;28;20469;-62
2021/08/18 09:37:42;;;;;;;0.40;0.40;;;19.40;99.90;;;;;;5072874;28;20410;-65
2021/08/18 09:40:18;;;;;;;0.50;0.50;;;19.30;99.90;;;;;;5073136;28;20416;-65
2021/08/18 09:42:45;;;;;;;0.30;0.30;;;19.20;99.90;;;;;;5072966;28;20502;-64
2021/08/18 09:45:42;;;;;;;0.63;0.60;;;19.20;99.90;;;;;;5073449;28;20395;-64
2021/08/18 09:48:09;;;;;;;1.70;0.40;;;19.30;99.90;;;;;;5070784;28;20435;-62
2021/08/18 09:51:01;;;;;;;1.53;0.47;;;19.40;99.90;;;;;;5058341;28;20794;-63
2021/08/18 09:53:29;;;;;;;0.40;0.30;;;19.40;99.90;;;;;;5052961;28;20408;-63
2021/08/18 09:56:05;;;;;;;0.50;0.50;;;19.50;99.90;;;;;;5053011;28;20407;-64
2021/08/18 09:58:32;;;;;;;1.13;0.63;;;19.60;99.90;;;;;;5052579;28;20872;-65
2021/08/18 10:01:09;;;;;;;0.90;0.50;;;19.70;99.90;;;;;;5053110;28;20837;-65
2021/08/18 10:03:35;;;;;;;0.40;0.40;;;19.90;99.90;;;;;;5059351;28;20493;-64
2021/08/18 10:06:02;;;;;;;0.60;0.43;;;20.00;99.90;;;;;;5072873;28;20419;-63
2021/08/18 10:08:28;;;;;;;1.03;1.00;;;20.10;99.90;;;;;;5072616;28;21007;-64
2021/08/18 10:10:54;;;;;;;0.50;0.50;;;20.20;99.90;;;;;;5053718;28;20731;-64
2021/08/18 10:13:21;;;;;;;0.50;0.50;;;20.40;99.90;;;;;;5052777;28;20424;-63
2021/08/18 10:15:47;;;;;;;0.87;0.37;;;20.60;99.90;;;;;;5052552;28;20427;-64
2021/08/18 10:18:26;;;;;;;0.50;0.50;;;20.90;99.90;;;;;;5055081;28;20966;-64
2021/08/18 10:20:56;;;;;;;0.50;0.37;;;21.20;99.90;;;;;;5056585;28;20176;-62
2021/08/18 10:24:00;;;;;;;0.30;0.30;;;21.60;99.90;;;;;;5056582;28;20412;-64
2021/08/18 10:26:32;;;;;;;0.50;0.40;;;21.80;99.90;;;;;;5056663;28;20416;-63
2021/08/18 10:29:01;;;;;;;1.00;1.00;;;21.70;99.90;;;;;;5061153;28;20541;-64
2021/08/18 10:31:48;;;;;;;0.50;0.50;;;21.60;99.90;;;;;;5076617;28;20761;-63
2021/08/18 10:34:22;;;;;;;0.60;0.57;;;21.30;99.90;;;;;;5076722;28;20410;-63
2021/08/18 10:36:51;;;;;;;0.80;0.60;;;21.00;99.90;;;;;;5075934;28;20411;-63
2021/08/18 10:39:25;;;;;;;0.60;0.60;;;20.70;99.90;;;;;;5074837;28;20438;-63
2021/08/18 10:42:03;;;;;;;0.50;0.50;;;20.50;99.90;;;;;;5076406;28;20403;-65
2021/08/18 10:44:48;;;;;;;1.37;0.87;;;20.50;99.90;;;;;;5064735;28;20443;-61
2021/08/18 10:47:39;;;;;;;0.87;0.87;;;20.70;99.90;;;;;;5054761;28;20790;-62
2021/08/18 10:50:23;;;;;;;0.53;0.53;;;20.80;99.90;;;;;;5056053;28;20423;-67
2021/08/18 10:52:53;;;;;;;0.60;0.60;;;20.90;99.90;;;;;;5056266;28;20430;-62
2021/08/18 10:55:30;;;;;;;0.70;0.70;;;21.10;99.90;;;;;;5056016;28;20472;-65
2021/08/18 10:57:57;;;;;;;0.77;0.73;;;21.10;99.90;;;;;;5070406;28;20434;-64
2021/08/18 11:00:26;;;;;;;0.90;0.90;;;21.20;99.90;;;;;;5075809;28;20454;-61
2021/08/18 11:02:56;;;;;;;1.00;0.90;;;21.10;99.90;;;;;;5075984;28;20406;-64
2021/08/18 11:05:25;;;;;;;0.70;0.70;;;21.20;99.90;;;;;;5076042;28;20788;-64
2021/08/18 11:08:15;;;;;;;0.87;0.87;;;21.30;99.90;;;;;;5075346;28;20408;-62
2021/08/18 11:10:53;;;;;;;0.80;0.80;;;21.30;99.90;;;;;;5075564;28;20434;-64
2021/08/18 11:13:36;;;;;;;0.97;0.97;;;21.10;99.90;;;;;;5075674;28;20501;-66
2021/08/18 11:16:07;;;;;;;0.60;0.60;;;21.40;99.90;;;;;;5075563;28;20491;-61
2021/08/18 11:18:35;;;;;;;1.70;1.07;;;21.60;99.90;;;;;;5074956;28;20480;-64
2021/08/18 11:21:01;;;;;;;1.07;0.97;;;21.90;99.90;;;;;;5075696;28;20823;-63
2021/08/18 11:23:29;;;;;;;1.10;1.10;;;22.00;99.90;;;;;;5075876;28;20406;-65
2021/08/18 11:26:01;;;;;;;1.00;1.00;;;22.00;99.90;;;;;;5074143;28;20418;-65
2021/08/18 11:28:28;;;;;;;0.83;0.83;;;22.10;99.90;;;;;;5074080;28;20436;-64
2021/08/18 11:31:10;;;;;;;1.10;1.00;;;22.00;99.90;;;;;;5075500;28;20389;-64
2021/08/18 11:33:36;;;;;;;0.73;0.70;;;21.70;99.90;;;;;;5075584;28;20405;-62
2021/08/18 11:36:11;;;;;;;0.60;0.50;;;21.70;99.90;;;;;;5075284;28;20424;-61
2021/08/18 11:38:37;;;;;;;1.20;1.10;;;21.60;99.90;;;;;;5074962;28;20468;-63
2021/08/18 11:41:02;;;;;;;0.83;0.83;;;21.50;99.90;;;;;;5074977;28;20791;-64
2021/08/18 11:43:39;;;;;;;1.00;0.93;;;21.40;99.90;;;;;;5074976;28;20177;-63
2021/08/18 11:46:05;;;;;;;1.17;1.13;;;21.30;99.90;;;;;;5075354;28;20171;-64
2021/08/18 11:48:32;;;;;;;1.10;0.90;;;21.20;99.90;;;;;;5074718;28;20842;-67
2021/08/18 11:50:59;;;;;;;1.40;0.80;;;21.10;99.90;;;;;;5073870;28;20180;-64
2021/08/18 11:53:26;;;;;;;1.60;1.47;;;21.00;99.90;;;;;;5074997;28;20419;-64
2021/08/18 11:56:02;;;;;;;1.47;1.27;;;21.00;99.90;;;;;;5062056;28;20420;-61
2021/08/18 11:58:33;;;;;;;2.20;1.90;;;21.00;99.90;;;;;;5054454;28;20467;-64
2021/08/18 12:01:04;;;;;;;2.13;2.03;;;21.00;99.90;;;;;;5055154;28;20434;-64
2021/08/18 12:03:31;;;;;;;0.63;0.60;;;21.10;99.90;;;;;;5054959;28;20405;-65
2021/08/18 12:06:05;;;;;;;1.07;0.90;;;21.30;99.90;;;;;;5055067;28;20407;-64
2021/08/18 12:08:39;;;;;;;0.87;0.87;;;21.50;99.90;;;;;;5054256;28;20951;-65
2021/08/18 12:11:06;;;;;;;0.80;0.80;;;22.00;99.90;;;;;;5054683;28;21048;-64
2021/08/18 12:13:44;;;;;;;0.93;0.93;;;22.40;99.90;;;;;;5054776;28;20781;-64
2021/08/18 12:16:24;;;;;;;1.13;0.80;;;22.90;99.90;;;;;;5054799;28;20411;-62
2021/08/18 12:18:51;;;;;;;1.63;0.70;;;23.20;99.90;;;;;;5053915;28;20466;-63
2021/08/18 12:21:27;;;;;;;0.73;0.73;;;23.20;99.90;;;;;;5054403;28;20486;-65
2021/08/18 12:23:58;;;;;;;1.40;1.13;;;23.30;99.90;;;;;;5059992;28;20423;-65
2021/08/18 12:26:37;;;;;;;0.73;0.73;;;23.30;99.90;;;;;;5070760;28;20416;-63
2021/08/18 12:29:05;;;;;;;0.70;0.70;;;23.20;99.90;;;;;;5054011;28;20523;-63
2021/08/18 12:31:57;;;;;;;0.70;0.70;;;23.30;99.90;;;;;;5054174;28;20746;-64
2021/08/18 12:34:36;;;;;;;0.70;0.70;;;23.30;99.90;;;;;;5054100;28;20400;-63
2021/08/18 12:37:03;;;;;;;1.00;0.90;;;23.20;99.90;;;;;;5053814;28;20383;-65
2021/08/18 12:39:34;;;;;;;0.80;0.80;;;22.90;99.90;;;;;;5065588;28;20463;-62
2021/08/18 12:41:59;;;;;;;1.63;1.13;;;22.60;99.90;;;;;;5073039;28;20759;-63
2021/08/18 12:44:37;;;;;;;1.23;1.00;;;22.30;99.90;;;;;;5073871;28;20411;-63
2021/08/18 12:47:28;;;;;;;0.77;0.77;;;22.00;99.90;;;;;;5073449;28;20669;-63
2021/08/18 12:49:53;;;;;;;0.80;0.80;;;21.50;99.90;;;;;;5073486;28;20440;-64
2021/08/18 12:52:19;;;;;;;0.93;0.80;;;21.30;99.90;;;;;;5073368;28;20415;-61